Time,TemperatureF,DewpointF,PressureIn,WindDirection,WindDirectionDegrees,WindSpeedMPH,WindSpeedGustMPH,Humidity,HourlyPrecipIn,Conditions,Clouds,dailyrainin,SoftwareType,DateUTC
2013-09-15 00:04:00,60.5,49.0,30.05,SE,146,3.0,8.0,66,0.00,,,0.00,weatherlink.com 1.10,2013-09-15 05:04:00,
2013-09-15 00:19:00,60.3,49.0,30.05,SSE,163,0.0,6.0,67,0.00,,,0.00,weatherlink.com 1.10,2013-09-15 05:19:00,
2013-09-15 00:34:00,59.6,49.0,30.05,SE,134,3.0,6.0,68,0.00,,,0.00,weatherlink.com 1.10,2013-09-15 05:34:00,
2013-09-15 00:50:00,60.0,49.0,30.05,ESE,119,4.0,11.0,68,0.00,,,0.00,weatherlink.com 1.10,2013-09-15 05:50:00,
2013-09-15 01:05:00,59.7,49.0,30.05,SE,126,5.0,7.0,69,0.00,,,0.00,weatherlink.com 1.10,2013-09-15 06:05:00,
2013-09-15 01:20:00,59.5,49.0,30.04,SSE,150,2.0,9.0,69,0.00,,,0.00,weatherlink.com 1.10,2013-09-15 06:20:00,
2013-09-15 01:35:00,59.2,49.0,30.04,SSE,156,2.0,7.0,70,0.00,,,0.00,weatherlink.com 1.10,2013-09-15 06:35:00,
2013-09-15 01:50:00,58.9,49.0,30.04,South,175,4.0,8.0,71,0.00,,,0.00,weatherlink.com 1.10,2013-09-15 06:50:00,
2013-09-15 02:05:00,58.6,50.0,30.03,SSE,155,7.0,8.0,72,0.00,,,0.00,weatherlink.com 1.10,2013-09-15 07:05:00,
2013-09-15 02:20:00,58.4,49.0,30.03,South,172,0.0,7.0,72,0.00,,,0.00,weatherlink.com 1.10,2013-09-15 07:20:00,
2013-09-15 02:35:00,58.4,49.0,30.03,SSW,196,5.0,10.0,72,0.00,,,0.00,weatherlink.com 1.10,2013-09-15 07:35:00,
2013-09-15 02:50:00,58.5,49.0,30.04,SSW,209,6.0,9.0,72,0.00,,,0.00,weatherlink.com 1.10,2013-09-15 07:50:00,
2013-09-15 03:05:00,58.5,49.0,30.04,SSW,193,3.0,8.0,72,0.00,,,0.00,weatherlink.com 1.10,2013-09-15 08:05:00,
2013-09-15 03:20:00,58.7,49.0,30.03,SSE,167,1.0,10.0,71,0.00,,,0.00,weatherlink.com 1.10,2013-09-15 08:20:00,
2013-09-15 03:35:00,58.7,49.0,30.03,South,182,5.0,7.0,71,0.00,,,0.00,weatherlink.com 1.10,2013-09-15 08:35:00,
2013-09-15 03:50:00,59.0,50.0,30.03,South,173,4.0,10.0,71,0.00,,,0.00,weatherlink.com 1.10,2013-09-15 08:50:00,
2013-09-15 04:05:00,58.9,49.0,30.03,South,177,8.0,10.0,71,0.00,,,0.00,weatherlink.com 1.10,2013-09-15 09:05:00,
2013-09-15 04:20:00,58.7,49.0,30.04,SSE,162,6.0,7.0,71,0.00,,,0.00,weatherlink.com 1.10,2013-09-15 09:20:00,
2013-09-15 04:35:00,58.6,50.0,30.04,South,190,2.0,7.0,72,0.00,,,0.00,weatherlink.com 1.10,2013-09-15 09:35:00,
2013-09-15 04:50:00,58.5,49.0,30.04,SSE,165,7.0,11.0,72,0.00,,,0.00,weatherlink.com 1.10,2013-09-15 09:50:00,
2013-09-15 05:05:00,58.4,49.0,30.04,SSE,167,5.0,9.0,72,0.00,,,0.00,weatherlink.com 1.10,2013-09-15 10:05:00,
2013-09-15 05:20:00,58.3,49.0,30.04,SSW,194,6.0,10.0,72,0.00,,,0.00,weatherlink.com 1.10,2013-09-15 10:20:00,
2013-09-15 05:35:00,58.3,49.0,30.04,SSW,195,8.0,8.0,72,0.00,,,0.00,weatherlink.com 1.10,2013-09-15 10:35:00,
2013-09-15 05:50:00,58.4,49.0,30.04,South,178,10.0,10.0,71,0.00,,,0.00,weatherlink.com 1.10,2013-09-15 10:50:00,
2013-09-15 06:05:00,58.5,49.0,30.04,SE,142,6.0,11.0,71,0.00,,,0.00,weatherlink.com 1.10,2013-09-15 11:05:00,
2013-09-15 06:20:00,58.2,49.0,30.04,South,183,5.0,7.0,72,0.00,,,0.00,weatherlink.com 1.10,2013-09-15 11:20:00,
2013-09-15 06:35:00,57.8,49.0,30.04,South,190,6.0,9.0,73,0.00,,,0.00,weatherlink.com 1.10,2013-09-15 11:35:00,
2013-09-15 06:50:00,57.5,49.0,30.05,SSW,203,3.0,7.0,74,0.00,,,0.00,weatherlink.com 1.10,2013-09-15 11:50:00,
2013-09-15 07:05:00,57.6,49.0,30.05,South,190,6.0,8.0,73,0.00,,,0.00,weatherlink.com 1.10,2013-09-15 12:05:00,
2013-09-15 07:20:00,58.4,49.0,30.06,SSW,197,5.0,8.0,72,0.00,,,0.00,weatherlink.com 1.10,2013-09-15 12:20:00,
2013-09-15 07:35:00,59.0,50.0,30.06,SSW,211,3.0,14.0,71,0.00,,,0.00,weatherlink.com 1.10,2013-09-15 12:35:00,
2013-09-15 07:50:00,59.7,50.0,30.06,SSW,200,2.0,11.0,70,0.00,,,0.00,weatherlink.com 1.10,2013-09-15 12:50:00,
2013-09-15 08:05:00,60.4,50.0,30.06,South,170,5.0,8.0,69,0.00,,,0.00,weatherlink.com 1.10,2013-09-15 13:05:00,
2013-09-15 08:20:00,61.2,51.0,30.06,SSW,205,5.0,10.0,69,0.00,,,0.00,weatherlink.com 1.10,2013-09-15 13:20:00,
2013-09-15 08:35:00,62.2,51.0,30.06,SSE,152,5.0,12.0,67,0.00,,,0.00,weatherlink.com 1.10,2013-09-15 13:35:00,
2013-09-15 08:50:00,62.8,51.0,30.06,South,180,4.0,11.0,66,0.00,,,0.00,weatherlink.com 1.10,2013-09-15 13:50:00,
2013-09-15 09:05:00,64.3,52.0,30.06,SW,222,3.0,9.0,64,0.00,,,0.00,weatherlink.com 1.10,2013-09-15 14:05:00,
2013-09-15 09:20:00,66.1,53.0,30.06,SSW,195,4.0,9.0,63,0.00,,,0.00,weatherlink.com 1.10,2013-09-15 14:20:00,
2013-09-15 09:35:00,66.9,53.0,30.07,SW,219,5.0,11.0,61,0.00,,,0.00,weatherlink.com 1.10,2013-09-15 14:35:00,
2013-09-15 09:51:00,68.3,53.0,30.07,SSW,213,6.0,11.0,59,0.00,,,0.00,weatherlink.com 1.10,2013-09-15 14:51:00,
2013-09-15 10:06:00,69.2,53.0,30.08,SSW,198,7.0,12.0,57,0.00,,,0.00,weatherlink.com 1.10,2013-09-15 15:06:00,
2013-09-15 10:21:00,70.5,55.0,30.08,South,175,4.0,11.0,58,0.00,,,0.00,weatherlink.com 1.10,2013-09-15 15:21:00,
2013-09-15 10:36:00,72.0,55.0,30.07,South,173,6.0,8.0,56,0.00,,,0.00,weatherlink.com 1.10,2013-09-15 15:36:00,
2013-09-15 10:51:00,73.1,56.0,30.07,SSW,196,4.0,9.0,55,0.00,,,0.00,weatherlink.com 1.10,2013-09-15 15:51:00,
2013-09-15 11:06:00,74.4,57.0,30.07,SSW,211,5.0,7.0,54,0.00,,,0.00,weatherlink.com 1.10,2013-09-15 16:06:00,
2013-09-15 11:21:00,75.6,57.0,30.07,SSE,161,6.0,9.0,53,0.00,,,0.00,weatherlink.com 1.10,2013-09-15 16:21:00,
2013-09-15 11:36:00,76.3,57.0,30.07,South,189,7.0,10.0,52,0.00,,,0.00,weatherlink.com 1.10,2013-09-15 16:36:00,
2013-09-15 11:51:00,77.8,59.0,30.06,West,280,3.0,13.0,52,0.00,,,0.00,weatherlink.com 1.10,2013-09-15 16:51:00,
2013-09-15 12:06:00,78.7,58.0,30.06,SW,227,7.0,14.0,50,0.00,,,0.00,weatherlink.com 1.10,2013-09-15 17:06:00,
2013-09-15 12:21:00,80.2,59.0,30.06,West,262,5.0,15.0,49,0.00,,,0.00,weatherlink.com 1.10,2013-09-15 17:21:00,
2013-09-15 12:36:00,81.4,60.0,30.06,WSW,248,5.0,12.0,48,0.00,,,0.00,weatherlink.com 1.10,2013-09-15 17:36:00,
2013-09-15 12:51:00,81.3,60.0,30.06,NW,311,12.0,12.0,48,0.00,,,0.00,weatherlink.com 1.10,2013-09-15 17:51:00,
2013-09-15 13:06:00,81.3,61.0,30.06,SW,215,7.0,11.0,50,0.00,,,0.00,weatherlink.com 1.10,2013-09-15 18:06:00,
2013-09-15 13:21:00,81.5,60.0,30.05,SW,222,8.0,13.0,48,0.00,,,0.00,weatherlink.com 1.10,2013-09-15 18:21:00,
2013-09-15 13:36:00,82.6,61.0,30.05,SW,232,3.0,11.0,49,0.00,,,0.00,weatherlink.com 1.10,2013-09-15 18:36:00,
2013-09-15 13:51:00,83.0,61.0,30.05,South,179,5.0,11.0,48,0.00,,,0.00,weatherlink.com 1.10,2013-09-15 18:51:00,
2013-09-15 14:06:00,84.6,62.0,30.05,SW,234,5.0,14.0,47,0.00,,,0.00,weatherlink.com 1.10,2013-09-15 19:06:00,
2013-09-15 14:21:00,83.7,62.0,30.04,SSW,194,4.0,11.0,48,0.00,,,0.00,weatherlink.com 1.10,2013-09-15 19:21:00,
2013-09-15 14:36:00,84.9,63.0,30.04,SW,227,5.0,8.0,48,0.00,,,0.00,weatherlink.com 1.10,2013-09-15 19:36:00,
2013-09-15 14:51:00,86.5,65.0,30.04,WSW,238,1.0,9.0,48,0.00,,,0.00,weatherlink.com 1.10,2013-09-15 19:51:00,
2013-09-15 15:06:00,85.8,63.0,30.04,WSW,243,4.0,10.0,47,0.00,,,0.00,weatherlink.com 1.10,2013-09-15 20:06:00,
2013-09-15 15:21:00,85.9,63.0,30.04,WSW,241,2.0,8.0,46,0.00,,,0.00,weatherlink.com 1.10,2013-09-15 20:21:00,
2013-09-15 15:37:00,86.1,63.0,30.03,SSE,149,3.0,6.0,46,0.00,,,0.00,weatherlink.com 1.10,2013-09-15 20:37:00,
2013-09-15 15:52:00,85.9,63.0,30.03,SW,221,3.0,7.0,47,0.00,,,0.00,weatherlink.com 1.10,2013-09-15 20:52:00,
2013-09-15 16:07:00,85.1,63.0,30.03,West,271,4.0,10.0,48,0.00,,,0.00,weatherlink.com 1.10,2013-09-15 21:07:00,
2013-09-15 16:23:00,85.9,64.0,30.03,WSW,241,7.0,9.0,48,0.00,,,0.00,weatherlink.com 1.10,2013-09-15 21:23:00,
2013-09-15 16:37:00,86.3,64.0,30.03,SW,224,6.0,7.0,47,0.00,,,0.00,weatherlink.com 1.10,2013-09-15 21:37:00,
2013-09-15 16:52:00,85.4,65.0,30.03,SSW,198,6.0,6.0,51,0.00,,,0.00,weatherlink.com 1.10,2013-09-15 21:52:00,
2013-09-15 17:07:00,86.0,65.0,30.03,South,170,2.0,4.0,50,0.00,,,0.00,weatherlink.com 1.10,2013-09-15 22:07:00,
2013-09-15 17:22:00,85.9,64.0,30.02,South,187,5.0,6.0,48,0.00,,,0.00,weatherlink.com 1.10,2013-09-15 22:22:00,
2013-09-15 17:37:00,85.5,65.0,30.03,SSW,203,0.0,8.0,51,0.00,,,0.00,weatherlink.com 1.10,2013-09-15 22:37:00,
2013-09-15 17:52:00,84.0,64.0,30.03,South,188,4.0,6.0,52,0.00,,,0.00,weatherlink.com 1.10,2013-09-15 22:52:00,
2013-09-15 18:07:00,82.6,65.0,30.02,South,181,3.0,5.0,56,0.00,,,0.00,weatherlink.com 1.10,2013-09-15 23:07:00,
2013-09-15 18:22:00,81.5,65.0,30.02,SSE,158,1.0,4.0,58,0.00,,,0.00,weatherlink.com 1.10,2013-09-15 23:22:00,
2013-09-15 18:37:00,80.6,65.0,30.03,SE,137,0.0,3.0,60,0.00,,,0.00,weatherlink.com 1.10,2013-09-15 23:37:00,
2013-09-15 18:52:00,79.2,65.0,30.03,SE,141,0.0,4.0,63,0.00,,,0.00,weatherlink.com 1.10,2013-09-15 23:52:00,
2013-09-15 19:07:00,78.1,65.0,30.03,SE,142,1.0,3.0,64,0.00,,,0.00,weatherlink.com 1.10,2013-09-16 00:07:00,
2013-09-15 19:22:00,77.2,65.0,30.03,SE,143,2.0,4.0,65,0.00,,,0.00,weatherlink.com 1.10,2013-09-16 00:22:00,
2013-09-15 19:37:00,76.1,64.0,30.02,SE,136,0.0,4.0,67,0.00,,,0.00,weatherlink.com 1.10,2013-09-16 00:37:00,
2013-09-15 19:52:00,75.5,64.0,30.03,SE,145,2.0,6.0,67,0.00,,,0.00,weatherlink.com 1.10,2013-09-16 00:52:00,
2013-09-15 20:07:00,75.2,63.0,30.04,SE,130,1.0,5.0,66,0.00,,,0.00,weatherlink.com 1.10,2013-09-16 01:07:00,
2013-09-15 20:22:00,74.9,63.0,30.04,SSE,148,1.0,4.0,66,0.00,,,0.00,weatherlink.com 1.10,2013-09-16 01:22:00,
2013-09-15 20:37:00,74.4,62.0,30.05,SSE,148,0.0,3.0,66,0.00,,,0.00,weatherlink.com 1.10,2013-09-16 01:37:00,
2013-09-15 20:52:00,73.6,62.0,30.05,ESE,115,3.0,5.0,67,0.00,,,0.00,weatherlink.com 1.10,2013-09-16 01:52:00,
2013-09-15 21:07:00,72.7,62.0,30.05,SSE,154,0.0,4.0,69,0.00,,,0.00,weatherlink.com 1.10,2013-09-16 02:07:00,
2013-09-15 21:22:00,72.0,62.0,30.05,South,169,3.0,4.0,70,0.00,,,0.00,weatherlink.com 1.10,2013-09-16 02:22:00,
2013-09-15 21:37:00,72.2,61.0,30.06,SE,130,2.0,5.0,69,0.00,,,0.00,weatherlink.com 1.10,2013-09-16 02:37:00,
2013-09-15 21:52:00,72.0,62.0,30.06,SE,146,0.0,4.0,70,0.00,,,0.00,weatherlink.com 1.10,2013-09-16 02:52:00,
2013-09-15 22:07:00,71.4,62.0,30.06,South,171,3.0,4.0,71,0.00,,,0.00,weatherlink.com 1.10,2013-09-16 03:07:00,
2013-09-15 22:22:00,71.1,61.0,30.06,SSE,168,1.0,5.0,71,0.00,,,0.00,weatherlink.com 1.10,2013-09-16 03:22:00,
2013-09-15 22:37:00,71.1,61.0,30.06,SE,146,0.0,4.0,71,0.00,,,0.00,weatherlink.com 1.10,2013-09-16 03:37:00,
2013-09-15 22:52:00,71.0,61.0,30.07,SSE,148,1.0,4.0,71,0.00,,,0.00,weatherlink.com 1.10,2013-09-16 03:52:00,
2013-09-15 23:07:00,70.7,61.0,30.07,South,171,1.0,5.0,72,0.00,,,0.00,weatherlink.com 1.10,2013-09-16 04:07:00,
2013-09-15 23:22:00,70.7,61.0,30.07,South,184,1.0,5.0,72,0.00,,,0.00,weatherlink.com 1.10,2013-09-16 04:22:00,
2013-09-15 23:37:00,70.4,61.0,30.07,South,179,2.0,3.0,72,0.00,,,0.00,weatherlink.com 1.10,2013-09-16 04:37:00,
2013-09-15 23:52:00,70.2,61.0,30.08,South,180,0.0,2.0,73,0.00,,,0.00,weatherlink.com 1.10,2013-09-16 04:52:00,